Time;durP1;ratioP1;P1;durP2;ratioP2;P2;SDS_P1;SDS_P2;PMS_P1;PMS_P2;Temp;Humidity;BMP_temperature;BMP_pressure;BME280_temperature;BME280_humidity;BME280_pressure;Samples;Min_cycle;Max_cycle;Signal;HPM_P1;HPM_P2
2022/07/10 00:01:04;;;;;;;3.83;0.75;;;;;;;;;;5009840;28;20080;-64
2022/07/10 00:03:31;;;;;;;4.10;0.70;;;;;;;;;;4986122;28;20058;-64
2022/07/10 00:05:58;;;;;;;3.75;0.70;;;;;;;;;;4990158;28;20054;-64
2022/07/10 00:08:24;;;;;;;5.50;0.75;;;;;;;;;;4990830;28;20145;-64
2022/07/10 00:10:52;;;;;;;1.77;0.70;;;;;;;;;;5002749;28;20057;-64
2022/07/10 00:13:20;;;;;;;2.33;0.90;;;;;;;;;;5010043;28;20050;-64
2022/07/10 00:15:46;;;;;;;1.92;0.70;;;;;;;;;;4989077;28;20058;-64
2022/07/10 00:18:13;;;;;;;3.30;0.60;;;;;;;;;;5023404;28;20077;-64
2022/07/10 00:20:42;;;;;;;1.88;0.60;;;;;;;;;;4973589;28;20134;-64
2022/07/10 00:23:08;;;;;;;3.65;1.48;;;;;;;;;;4980177;28;20058;-64
2022/07/10 00:25:35;;;;;;;1.10;0.73;;;;;;;;;;5000467;28;20057;-64
2022/07/10 00:28:02;;;;;;;5.57;0.82;;;;;;;;;;5010535;28;20122;-64
2022/07/10 00:30:30;;;;;;;2.10;0.50;;;;;;;;;;4997275;28;20055;-64
2022/07/10 00:32:56;;;;;;;0.95;0.50;;;;;;;;;;4991197;28;20050;-64
2022/07/10 00:35:23;;;;;;;2.58;0.90;;;;;;;;;;4986603;28;20050;-64
2022/07/10 00:37:52;;;;;;;1.17;0.63;;;;;;;;;;4994759;28;20077;-64
2022/07/10 00:40:25;;;;;;;0.90;0.52;;;;;;;;;;5008210;28;20049;-64
2022/07/10 00:42:52;;;;;;;2.47;0.90;;;;;;;;;;5008909;28;20053;-64
2022/07/10 00:45:18;;;;;;;3.38;1.00;;;;;;;;;;4990175;28;20074;-64
2022/07/10 00:47:46;;;;;;;5.20;1.00;;;;;;;;;;4992083;28;20084;-64
2022/07/10 00:50:13;;;;;;;5.72;1.02;;;;;;;;;;4993416;28;20096;-64
2022/07/10 00:52:40;;;;;;;2.70;0.80;;;;;;;;;;4989184;28;20050;-64
2022/07/10 00:55:07;;;;;;;3.88;1.00;;;;;;;;;;5006257;28;20050;-64
2022/07/10 00:57:34;;;;;;;2.00;0.70;;;;;;;;;;5005651;28;20046;-64
2022/07/10 01:00:01;;;;;;;2.00;0.80;;;;;;;;;;5010458;28;20100;-64
2022/07/10 01:02:27;;;;;;;1.95;0.70;;;;;;;;;;5004445;28;20128;-64
2022/07/10 01:04:57;;;;;;;3.40;0.90;;;;;;;;;;4995119;28;20050;-64
2022/07/10 01:07:23;;;;;;;5.95;0.88;;;;;;;;;;4977319;28;20058;-64
2022/07/10 01:09:52;;;;;;;1.80;0.70;;;;;;;;;;4975263;28;20055;-64
2022/07/10 01:12:18;;;;;;;;;;;;;;;;;;4975993;28;20053;-64
2022/07/10 01:14:45;;;;;;;2.15;0.77;;;;;;;;;;4977823;28;19931;-64
2022/07/10 01:17:12;;;;;;;3.47;0.70;;;;;;;;;;4976885;28;20054;-64
2022/07/10 01:19:38;;;;;;;2.13;0.80;;;;;;;;;;4978315;28;20074;-63
2022/07/10 01:22:06;;;;;;;3.85;0.98;;;;;;;;;;4977653;28;20070;-65
2022/07/10 01:24:33;;;;;;;3.08;0.80;;;;;;;;;;4985538;28;20054;-65
2022/07/10 01:26:59;;;;;;;4.80;0.80;;;;;;;;;;4992043;28;20058;-64
2022/07/10 01:29:26;;;;;;;1.65;0.70;;;;;;;;;;4984646;28;20050;-64
2022/07/10 01:31:52;;;;;;;2.00;0.57;;;;;;;;;;4991870;28;20050;-64
2022/07/10 01:34:19;;;;;;;2.67;0.60;;;;;;;;;;4983877;28;20047;-64
2022/07/10 01:36:46;;;;;;;3.78;0.60;;;;;;;;;;4971851;28;20054;-64
2022/07/10 01:39:14;;;;;;;2.45;0.75;;;;;;;;;;4971778;28;20050;-64
2022/07/10 01:41:40;;;;;;;2.72;0.50;;;;;;;;;;4957534;28;20049;-63
2022/07/10 01:44:07;;;;;;;3.65;0.70;;;;;;;;;;4974716;28;20051;-64
2022/07/10 01:46:33;;;;;;;4.30;1.00;;;;;;;;;;4972868;28;20110;-63
2022/07/10 01:49:00;;;;;;;2.95;1.00;;;;;;;;;;4974815;28;20123;-64
2022/07/10 01:51:27;;;;;;;6.50;1.10;;;;;;;;;;4971529;28;20055;-64
2022/07/10 01:53:55;;;;;;;3.30;0.77;;;;;;;;;;4984316;28;20058;-64
2022/07/10 01:56:23;;;;;;;3.33;0.90;;;;;;;;;;5019892;28;20054;-64
2022/07/10 01:58:49;;;;;;;2.10;0.57;;;;;;;;;;4973864;28;20051;-64
2022/07/10 02:01:18;;;;;;;1.20;0.57;;;;;;;;;;4981515;28;20078;-64
2022/07/10 02:06:29;;;;;;;3.10;1.05;;;;;;;;;;4993225;28;20081;-64
2022/07/10 02:08:56;;;;;;;3.40;0.90;;;;;;;;;;4976614;28;20070;-64
2022/07/10 02:11:24;;;;;;;0.73;0.63;;;;;;;;;;4974163;28;20062;-64
2022/07/10 02:13:50;;;;;;;1.60;0.70;;;;;;;;;;4975684;28;20058;-64
2022/07/10 02:16:17;;;;;;;3.42;0.60;;;;;;;;;;4991999;28;20062;-63
2022/07/10 02:18:43;;;;;;;1.33;0.50;;;;;;;;;;4986234;28;20059;-64
2022/07/10 02:21:18;;;;;;;4.88;1.00;;;;;;;;;;4988064;28;20050;-64
2022/07/10 02:23:45;;;;;;;3.15;0.80;;;;;;;;;;5008498;28;20129;-64
2022/07/10 02:26:12;;;;;;;1.45;0.60;;;;;;;;;;5004719;28;20061;-63
2022/07/10 02:28:40;;;;;;;1.75;0.65;;;;;;;;;;5012330;28;20046;-64
2022/07/10 02:31:14;;;;;;;5.40;0.98;;;;;;;;;;5008430;28;20050;-64
2022/07/10 02:33:40;;;;;;;2.13;0.68;;;;;;;;;;5012421;28;20057;-63
2022/07/10 02:36:07;;;;;;;3.42;0.80;;;;;;;;;;5006522;28;20054;-63
2022/07/10 02:38:33;;;;;;;4.47;0.77;;;;;;;;;;5028988;28;20121;-64
2022/07/10 02:41:02;;;;;;;4.07;0.90;;;;;;;;;;5006428;28;20089;-64
2022/07/10 02:43:29;;;;;;;2.10;0.70;;;;;;;;;;5012627;28;20068;-64
2022/07/10 02:45:57;;;;;;;2.88;0.90;;;;;;;;;;5006426;28;20053;-64
2022/07/10 02:48:24;;;;;;;5.60;0.88;;;;;;;;;;5012938;28;20054;-64
2022/07/10 02:51:22;;;;;;;1.73;0.70;;;;;;;;;;5006877;28;20045;-64
2022/07/10 02:53:58;;;;;;;2.80;0.68;;;;;;;;;;5008039;28;20050;-64
2022/07/10 02:56:24;;;;;;;3.40;0.77;;;;;;;;;;5007023;28;20054;-64
2022/07/10 02:58:51;;;;;;;4.47;1.10;;;;;;;;;;5008404;28;20042;-64
2022/07/10 03:03:47;;;;;;;1.75;0.57;;;;;;;;;;4991609;23;20051;-64
2022/07/10 03:06:14;;;;;;;4.47;1.08;;;;;;;;;;4965640;28;20052;-64
2022/07/10 03:08:41;;;;;;;4.40;1.00;;;;;;;;;;4961758;28;20057;-64
2022/07/10 03:11:08;;;;;;;8.25;1.08;;;;;;;;;;4970208;28;20047;-64
2022/07/10 03:13:34;;;;;;;4.13;0.85;;;;;;;;;;4962973;28;20050;-64
2022/07/10 03:16:01;;;;;;;5.00;1.00;;;;;;;;;;4971985;28;20082;-64
2022/07/10 03:18:28;;;;;;;4.47;0.70;;;;;;;;;;4964557;28;20062;-64
2022/07/10 03:20:56;;;;;;;1.85;0.70;;;;;;;;;;4973270;28;20081;-64
2022/07/10 03:23:22;;;;;;;3.60;0.98;;;;;;;;;;4967283;28;20065;-64
2022/07/10 03:25:49;;;;;;;2.03;0.57;;;;;;;;;;4966829;28;20062;-63
2022/07/10 03:28:15;;;;;;;1.17;0.68;;;;;;;;;;4972020;28;20117;-64
2022/07/10 03:30:42;;;;;;;2.35;0.65;;;;;;;;;;4963733;28;20055;-64
2022/07/10 03:33:09;;;;;;;2.85;0.93;;;;;;;;;;4969857;28;20069;-64
2022/07/10 03:35:35;;;;;;;2.83;0.70;;;;;;;;;;4963001;28;20056;-64
2022/07/10 03:38:03;;;;;;;1.85;0.60;;;;;;;;;;4971824;28;20137;-64
2022/07/10 03:40:30;;;;;;;1.23;0.50;;;;;;;;;;4965094;28;20059;-64
2022/07/10 03:42:57;;;;;;;3.70;0.52;;;;;;;;;;4970107;28;20112;-64
2022/07/10 03:45:23;;;;;;;3.67;0.88;;;;;;;;;;4970932;28;20050;-64
2022/07/10 03:47:50;;;;;;;2.03;0.65;;;;;;;;;;4963675;28;20058;-64
2022/07/10 03:50:17;;;;;;;4.80;1.10;;;;;;;;;;4973197;28;20054;-64
2022/07/10 03:52:46;;;;;;;2.47;0.95;;;;;;;;;;4962407;28;20050;-64
2022/07/10 03:55:14;;;;;;;2.30;0.82;;;;;;;;;;4971771;28;20058;-63
2022/07/10 03:57:56;;;;;;;2.42;0.77;;;;;;;;;;4962873;28;20066;-64
2022/07/10 04:00:40;;;;;;;7.13;0.82;;;;;;;;;;4972355;28;20180;-64
2022/07/10 04:03:07;;;;;;;6.40;1.20;;;;;;;;;;4966314;28;20113;-64
2022/07/10 04:05:34;;;;;;;3.25;0.75;;;;;;;;;;4972029;28;20120;-64
2022/07/10 04:08:01;;;;;;;3.05;0.90;;;;;;;;;;4972667;28;20081;-64
2022/07/10 04:10:30;;;;;;;4.70;0.90;;;;;;;;;;4966180;28;20062;-64
2022/07/10 04:12:58;;;;;;;3.90;1.15;;;;;;;;;;4972431;28;20101;-64
2022/07/10 04:15:25;;;;;;;0.88;0.55;;;;;;;;;;4965685;28;20065;-64
2022/07/10 04:17:53;;;;;;;1.75;0.70;;;;;;;;;;4972285;28;20058;-64
2022/07/10 04:20:20;;;;;;;2.05;0.60;;;;;;;;;;4967435;28;20062;-63
2022/07/10 04:22:46;;;;;;;5.47;0.95;;;;;;;;;;4976862;28;20130;-63
2022/07/10 04:25:13;;;;;;;2.45;0.77;;;;;;;;;;4967661;28;20054;-64
2022/07/10 04:27:41;;;;;;;4.00;0.60;;;;;;;;;;4971875;28;20056;-64
2022/07/10 04:30:08;;;;;;;2.08;0.75;;;;;;;;;;4968230;28;20057;-64
2022/07/10 04:32:35;;;;;;;1.15;0.57;;;;;;;;;;4971923;28;20050;-64
2022/07/10 04:35:02;;;;;;;5.75;1.00;;;;;;;;;;4967663;28;20054;-63
2022/07/10 04:37:29;;;;;;;6.25;0.80;;;;;;;;;;4986386;28;20058;-64
2022/07/10 04:39:56;;;;;;;5.95;0.93;;;;;;;;;;4987363;28;20054;-64
2022/07/10 04:42:23;;;;;;;3.60;0.70;;;;;;;;;;4985289;28;20049;-64
2022/07/10 04:44:51;;;;;;;1.23;0.70;;;;;;;;;;4990671;28;20061;-64
2022/07/10 04:47:17;;;;;;;3.88;0.85;;;;;;;;;;4983761;28;20058;-63
2022/07/10 04:49:45;;;;;;;5.32;1.00;;;;;;;;;;4991207;28;20054;-63
2022/07/10 04:52:12;;;;;;;2.83;0.70;;;;;;;;;;4984045;28;20054;-64
2022/07/10 04:54:38;;;;;;;6.78;1.00;;;;;;;;;;4990270;28;20068;-63
2022/07/10 04:57:05;;;;;;;2.55;0.90;;;;;;;;;;4974481;28;20054;-64
2022/07/10 04:59:32;;;;;;;2.28;0.70;;;;;;;;;;4971487;28;20047;-64
2022/07/10 05:02:00;;;;;;;1.90;0.60;;;;;;;;;;4972188;28;20057;-64
2022/07/10 05:04:26;;;;;;;2.55;0.70;;;;;;;;;;4991497;28;20054;-64
2022/07/10 05:06:53;;;;;;;2.95;0.70;;;;;;;;;;4980663;28;20051;-64
2022/07/10 05:09:20;;;;;;;3.25;0.73;;;;;;;;;;4973490;28;20051;-64
2022/07/10 05:11:46;;;;;;;2.08;0.70;;;;;;;;;;4965234;28;20050;-64
2022/07/10 05:14:13;;;;;;;2.05;0.70;;;;;;;;;;4971161;28;20057;-64
2022/07/10 05:16:40;;;;;;;0.63;0.50;;;;;;;;;;4965805;28;20042;-64
2022/07/10 05:19:08;;;;;;;6.13;0.77;;;;;;;;;;4987888;28;20065;-64
2022/07/10 05:21:41;;;;;;;0.88;0.50;;;;;;;;;;4989897;28;20050;-64
2022/07/10 05:24:07;;;;;;;6.72;0.93;;;;;;;;;;4981635;28;20129;-64
2022/07/10 05:26:35;;;;;;;4.82;1.00;;;;;;;;;;4986921;28;20225;-64
2022/07/10 05:29:02;;;;;;;2.53;0.70;;;;;;;;;;4980712;28;20153;-64
2022/07/10 05:31:29;;;;;;;1.55;0.60;;;;;;;;;;4987624;28;20117;-64
2022/07/10 05:33:55;;;;;;;2.90;0.65;;;;;;;;;;4971179;28;20068;-64
2022/07/10 05:36:24;;;;;;;7.65;0.80;;;;;;;;;;4970864;28;20092;-64
2022/07/10 05:38:50;;;;;;;;;;;;;;;;;;4972985;28;20077;-64
2022/07/10 05:41:17;;;;;;;2.90;0.60;;;;;;;;;;4987214;28;19933;-64
2022/07/10 05:43:43;;;;;;;4.20;1.00;;;;;;;;;;4975021;28;20051;-64
2022/07/10 05:46:10;;;;;;;4.22;0.90;;;;;;;;;;4970903;28;20061;-64
2022/07/10 05:48:38;;;;;;;5.53;0.90;;;;;;;;;;4965560;28;20047;-64
2022/07/10 05:51:05;;;;;;;2.90;0.90;;;;;;;;;;4970460;28;20061;-63
2022/07/10 05:53:33;;;;;;;5.90;1.23;;;;;;;;;;4968322;28;20058;-63
2022/07/10 05:56:00;;;;;;;3.50;0.75;;;;;;;;;;4975392;28;20046;-64
2022/07/10 05:58:27;;;;;;;4.25;0.88;;;;;;;;;;4976781;28;20058;-64
2022/07/10 06:00:53;;;;;;;2.67;0.73;;;;;;;;;;4974827;28;20128;-64
2022/07/10 06:03:21;;;;;;;2.03;0.55;;;;;;;;;;4970720;28;20054;-64
2022/07/10 06:05:47;;;;;;;1.00;0.45;;;;;;;;;;4982733;28;20058;-64
2022/07/10 06:08:14;;;;;;;4.13;0.88;;;;;;;;;;4984655;28;20055;-64
2022/07/10 06:10:43;;;;;;;5.72;1.00;;;;;;;;;;4964905;28;20137;-64
2022/07/10 06:13:10;;;;;;;3.60;0.75;;;;;;;;;;4971020;28;20082;-64
2022/07/10 06:15:37;;;;;;;2.38;0.80;;;;;;;;;;4964084;28;20054;-64
2022/07/10 06:18:04;;;;;;;8.93;1.55;;;;;;;;;;4970563;28;20073;-64
2022/07/10 06:20:30;;;;;;;2.28;0.80;;;;;;;;;;4964780;28;20046;-64
2022/07/10 06:22:57;;;;;;;5.90;0.93;;;;;;;;;;4970987;28;20120;-64
2022/07/10 06:25:24;;;;;;;4.05;0.82;;;;;;;;;;4964443;28;20059;-64
2022/07/10 06:27:52;;;;;;;4.18;0.80;;;;;;;;;;4971121;28;20051;-64
2022/07/10 06:30:18;;;;;;;10.95;1.27;;;;;;;;;;4964636;28;20165;-64
2022/07/10 06:32:45;;;;;;;15.05;0.93;;;;;;;;;;4971464;28;20067;-64
2022/07/10 06:35:12;;;;;;;7.45;0.90;;;;;;;;;;4968283;28;20050;-65
2022/07/10 06:37:38;;;;;;;5.00;0.73;;;;;;;;;;4987605;28;20058;-64
2022/07/10 06:40:06;;;;;;;6.40;1.13;;;;;;;;;;4964247;28;20054;-63
2022/07/10 06:42:32;;;;;;;3.90;0.98;;;;;;;;;;4970653;28;20499;-63
2022/07/10 06:45:01;;;;;;;3.33;0.63;;;;;;;;;;4970409;28;20062;-63
2022/07/10 06:50:11;;;;;;;0.55;0.52;;;;;;;;;;4971983;28;20081;-63
2022/07/10 06:52:38;;;;;;;3.78;0.90;;;;;;;;;;4965761;28;20057;-64
2022/07/10 06:55:05;;;;;;;2.70;0.70;;;;;;;;;;4969607;28;20128;-63
2022/07/10 06:57:32;;;;;;;4.38;0.98;;;;;;;;;;4964611;28;20078;-63
2022/07/10 07:00:00;;;;;;;4.95;0.88;;;;;;;;;;4970179;28;20051;-63
2022/07/10 07:02:26;;;;;;;5.00;1.10;;;;;;;;;;4970538;28;20062;-63
2022/07/10 07:04:53;;;;;;;6.32;1.13;;;;;;;;;;4968388;28;20058;-64
2022/07/10 07:07:20;;;;;;;7.18;1.00;;;;;;;;;;4962639;28;20065;-64
2022/07/10 07:09:49;;;;;;;5.60;0.88;;;;;;;;;;4967958;28;20082;-64
2022/07/10 07:12:16;;;;;;;5.40;0.90;;;;;;;;;;4964515;28;20065;-63
2022/07/10 07:14:43;;;;;;;5.40;1.10;;;;;;;;;;4970976;28;20055;-64
2022/07/10 07:17:13;;;;;;;8.98;1.30;;;;;;;;;;4971200;28;20054;-63
2022/07/10 07:25:10;;;;;;;3.55;1.13;;;;;;;;;;4959113;28;20086;-64
2022/07/10 07:27:37;;;;;;;5.07;1.25;;;;;;;;;;4967346;28;20125;-63
2022/07/10 07:30:06;;;;;;;2.75;1.00;;;;;;;;;;4958041;28;20062;-64
2022/07/10 07:32:34;;;;;;;6.32;1.40;;;;;;;;;;4977162;28;20055;-66
2022/07/10 07:35:01;;;;;;;4.43;0.98;;;;;;;;;;4963636;28;20066;-64
2022/07/10 07:37:38;;;;;;;5.18;1.17;;;;;;;;;;4970831;28;20070;-64
2022/07/10 07:40:05;;;;;;;4.15;1.00;;;;;;;;;;4957156;28;20089;-64
2022/07/10 07:42:32;;;;;;;2.97;0.82;;;;;;;;;;4966853;28;20054;-64
2022/07/10 07:44:58;;;;;;;7.55;1.23;;;;;;;;;;4967957;28;20058;-63
2022/07/10 07:47:25;;;;;;;4.78;0.95;;;;;;;;;;4957068;28;20050;-64
2022/07/10 07:50:04;;;;;;;2.22;0.80;;;;;;;;;;4969535;28;20055;-63
2022/07/10 07:52:31;;;;;;;;;;;;;;;;;;4957182;28;20066;-64
2022/07/10 07:54:57;;;;;;;5.15;1.00;;;;;;;;;;4968525;28;19965;-63
2022/07/10 07:57:24;;;;;;;2.03;0.65;;;;;;;;;;4957607;28;20061;-65
2022/07/10 07:59:52;;;;;;;4.45;1.00;;;;;;;;;;4967905;28;20058;-64
2022/07/10 08:02:18;;;;;;;3.55;0.88;;;;;;;;;;4960287;28;20055;-64
2022/07/10 08:04:45;;;;;;;3.83;1.08;;;;;;;;;;4965256;28;20051;-63
2022/07/10 08:07:13;;;;;;;2.83;0.93;;;;;;;;;;4967526;28;20132;-64
2022/07/10 08:09:40;;;;;;;3.70;0.95;;;;;;;;;;4960233;28;20054;-64
2022/07/10 08:12:07;;;;;;;5.32;1.02;;;;;;;;;;4966764;28;20062;-64
2022/07/10 08:14:33;;;;;;;4.00;0.93;;;;;;;;;;4959051;28;20125;-64
2022/07/10 08:17:00;;;;;;;4.00;1.10;;;;;;;;;;4967803;28;20114;-63
2022/07/10 08:19:27;;;;;;;7.45;1.23;;;;;;;;;;4962309;28;20070;-63
2022/07/10 08:21:54;;;;;;;2.83;0.95;;;;;;;;;;4967333;28;20050;-64
2022/07/10 08:24:22;;;;;;;5.30;1.13;;;;;;;;;;4962067;28;20050;-63
2022/07/10 08:26:49;;;;;;;8.43;1.40;;;;;;;;;;4967713;28;20069;-64
2022/07/10 08:29:16;;;;;;;5.05;1.23;;;;;;;;;;4962876;28;20066;-64
2022/07/10 08:31:43;;;;;;;1.67;0.90;;;;;;;;;;4967782;28;20046;-63
2022/07/10 08:34:09;;;;;;;4.90;0.95;;;;;;;;;;4967611;28;20046;-64
2022/07/10 08:36:36;;;;;;;6.88;1.10;;;;;;;;;;4962051;28;20054;-62
2022/07/10 08:39:03;;;;;;;3.72;1.00;;;;;;;;;;4967880;28;20063;-63
2022/07/10 08:41:32;;;;;;;3.20;0.90;;;;;;;;;;4962092;28;20047;-63
2022/07/10 08:43:58;;;;;;;4.93;1.27;;;;;;;;;;4966669;28;20062;-64
2022/07/10 08:46:25;;;;;;;2.38;0.90;;;;;;;;;;4961543;28;20069;-63
2022/07/10 08:48:54;;;;;;;4.00;0.85;;;;;;;;;;4968386;28;20070;-63
2022/07/10 08:51:23;;;;;;;5.72;1.10;;;;;;;;;;4961437;28;20042;-64
2022/07/10 08:53:51;;;;;;;4.28;0.85;;;;;;;;;;4968231;28;20055;-63
2022/07/10 08:56:18;;;;;;;3.83;1.83;;;;;;;;;;4961855;28;20059;-63
2022/07/10 08:58:48;;;;;;;3.05;1.00;;;;;;;;;;4968095;28;20051;-63
2022/07/10 09:01:22;;;;;;;4.35;1.00;;;;;;;;;;4962089;28;20055;-63
2022/07/10 09:03:49;;;;;;;4.63;1.17;;;;;;;;;;4959115;28;20055;-63
2022/07/10 09:06:16;;;;;;;3.08;1.02;;;;;;;;;;4952658;28;20081;-64
2022/07/10 09:08:58;;;;;;;5.10;1.13;;;;;;;;;;4999543;28;20081;-64
2022/07/10 09:11:28;;;;;;;5.90;1.20;;;;;;;;;;4949659;28;20062;-63
2022/07/10 09:13:57;;;;;;;8.43;1.20;;;;;;;;;;4967750;28;20054;-63
2022/07/10 09:16:25;;;;;;;4.75;0.95;;;;;;;;;;4966070;28;20061;-64
2022/07/10 09:18:52;;;;;;;1.10;0.77;;;;;;;;;;4963272;28;20134;-64
2022/07/10 09:21:18;;;;;;;4.05;0.95;;;;;;;;;;4968179;28;20086;-64
2022/07/10 09:23:45;;;;;;;7.00;1.23;;;;;;;;;;4959128;28;20084;-64
2022/07/10 09:26:11;;;;;;;5.68;1.10;;;;;;;;;;4967533;28;20062;-63
2022/07/10 09:28:38;;;;;;;2.20;0.88;;;;;;;;;;4961427;28;20062;-63
2022/07/10 09:31:07;;;;;;;3.17;0.80;;;;;;;;;;4969236;28;20058;-64
2022/07/10 09:33:35;;;;;;;3.28;0.90;;;;;;;;;;4967705;28;20492;-63
2022/07/10 09:36:07;;;;;;;4.05;1.00;;;;;;;;;;4971173;28;20058;-64
2022/07/10 09:38:53;;;;;;;3.05;0.93;;;;;;;;;;4974034;28;20125;-64
2022/07/10 09:41:28;;;;;;;2.10;1.00;;;;;;;;;;4970070;28;20051;-64
2022/07/10 09:43:56;;;;;;;2.90;0.80;;;;;;;;;;4972668;28;20117;-64
2022/07/10 09:46:25;;;;;;;4.57;1.00;;;;;;;;;;4967537;28;20136;-64
2022/07/10 09:49:02;;;;;;;3.65;1.30;;;;;;;;;;4973765;28;20330;-63
2022/07/10 09:51:36;;;;;;;2.20;1.05;;;;;;;;;;4966340;28;20081;-63
2022/07/10 09:54:04;;;;;;;5.70;1.45;;;;;;;;;;4983405;28;20092;-63
2022/07/10 09:56:33;;;;;;;3.00;1.15;;;;;;;;;;4979148;28;20074;-64
2022/07/10 09:59:01;;;;;;;4.78;1.23;;;;;;;;;;4973283;28;20055;-63
2022/07/10 10:01:31;;;;;;;4.35;1.20;;;;;;;;;;4970877;28;20054;-63
2022/07/10 10:04:00;;;;;;;4.90;1.00;;;;;;;;;;4959927;28;20051;-63
2022/07/10 10:06:28;;;;;;;2.30;0.90;;;;;;;;;;4967622;28;20054;-63
2022/07/10 10:08:57;;;;;;;3.90;1.10;;;;;;;;;;4964930;28;20047;-63
2022/07/10 10:11:26;;;;;;;2.67;1.08;;;;;;;;;;4969951;28;20053;-64
2022/07/10 10:13:53;;;;;;;4.25;0.80;;;;;;;;;;4946948;28;20043;-64
2022/07/10 10:16:21;;;;;;;8.05;1.05;;;;;;;;;;4959860;28;20034;-64
2022/07/10 10:21:35;;;;;;;3.33;0.97;;;;;;;;;;4972582;28;20145;-64
2022/07/10 10:24:02;;;;;;;5.40;1.08;;;;;;;;;;4969055;28;20066;-64
2022/07/10 10:26:29;;;;;;;2.15;0.90;;;;;;;;;;4970161;28;20167;-64
2022/07/10 10:28:58;;;;;;;7.05;1.50;;;;;;;;;;4972586;28;20065;-64
2022/07/10 10:31:27;;;;;;;3.15;0.90;;;;;;;;;;4965928;28;20050;-64
2022/07/10 10:33:56;;;;;;;2.42;1.20;;;;;;;;;;4966183;28;20062;-63
2022/07/10 10:36:41;;;;;;;6.00;1.30;;;;;;;;;;4965650;28;20059;-63
2022/07/10 10:39:12;;;;;;;3.78;1.00;;;;;;;;;;4973208;28;20082;-63
2022/07/10 10:41:42;;;;;;;1.98;0.98;;;;;;;;;;4966998;28;20058;-64
2022/07/10 10:44:35;;;;;;;2.33;1.05;;;;;;;;;;4974612;28;20051;-64
2022/07/10 10:47:05;;;;;;;2.42;0.90;;;;;;;;;;4964221;28;20121;-63
2022/07/10 10:49:52;;;;;;;3.70;0.90;;;;;;;;;;4972339;28;20149;-64
2022/07/10 10:52:21;;;;;;;3.35;0.90;;;;;;;;;;4965532;28;20059;-63
2022/07/10 10:55:03;;;;;;;2.85;0.80;;;;;;;;;;4968847;28;20042;-64
2022/07/10 10:57:47;;;;;;;2.70;1.10;;;;;;;;;;4966533;28;20101;-63
2022/07/10 11:00:18;;;;;;;1.88;0.85;;;;;;;;;;4971299;28;20153;-64
2022/07/10 11:02:45;;;;;;;3.72;1.23;;;;;;;;;;4970848;28;20114;-64
2022/07/10 11:05:30;;;;;;;3.80;0.90;;;;;;;;;;4963017;28;20070;-64
2022/07/10 11:07:59;;;;;;;3.75;1.33;;;;;;;;;;4971003;28;20055;-63
2022/07/10 11:10:41;;;;;;;3.78;1.25;;;;;;;;;;4964919;28;20097;-64
2022/07/10 11:13:09;;;;;;;2.60;1.10;;;;;;;;;;4970892;28;20575;-63
2022/07/10 11:15:36;;;;;;;2.95;0.88;;;;;;;;;;4960508;28;20055;-64
2022/07/10 11:18:07;;;;;;;2.13;1.00;;;;;;;;;;4967677;28;20082;-63
2022/07/10 11:20:35;;;;;;;1.63;0.80;;;;;;;;;;4964969;28;20141;-64
2022/07/10 11:23:25;;;;;;;5.38;1.27;;;;;;;;;;4971656;28;20050;-64
2022/07/10 11:26:01;;;;;;;3.05;1.08;;;;;;;;;;4970466;28;20046;-64
2022/07/10 11:28:33;;;;;;;3.80;1.10;;;;;;;;;;4990036;28;20093;-63
2022/07/10 11:31:01;;;;;;;4.28;1.00;;;;;;;;;;4979207;28;20051;-64
2022/07/10 11:33:28;;;;;;;1.35;0.70;;;;;;;;;;4970380;28;20054;-64
2022/07/10 11:35:55;;;;;;;1.88;0.80;;;;;;;;;;4965789;28;20062;-64
2022/07/10 11:38:24;;;;;;;2.35;0.98;;;;;;;;;;4971235;28;20051;-64
2022/07/10 11:40:57;;;;;;;2.13;0.90;;;;;;;;;;4964845;28;20051;-64
2022/07/10 11:43:24;;;;;;;7.15;1.50;;;;;;;;;;4990385;28;20054;-64
2022/07/10 11:45:54;;;;;;;2.60;0.80;;;;;;;;;;4988657;28;20057;-64
2022/07/10 11:48:21;;;;;;;5.47;1.02;;;;;;;;;;4969202;28;20082;-64
2022/07/10 11:50:48;;;;;;;4.35;1.20;;;;;;;;;;4971227;28;20039;-63
2022/07/10 11:53:14;;;;;;;2.50;0.85;;;;;;;;;;4964839;28;20045;-63
2022/07/10 11:55:43;;;;;;;2.08;0.95;;;;;;;;;;4971829;28;20066;-63
2022/07/10 11:58:16;;;;;;;8.95;1.30;;;;;;;;;;4964945;28;20150;-64
2022/07/10 12:00:57;;;;;;;2.75;0.90;;;;;;;;;;4968151;28;20145;-64
2022/07/10 12:03:24;;;;;;;2.78;1.08;;;;;;;;;;4966778;28;20113;-64
2022/07/10 12:05:52;;;;;;;6.00;1.30;;;;;;;;;;4987644;28;20064;-64
2022/07/10 12:08:19;;;;;;;3.70;1.15;;;;;;;;;;4965681;28;20106;-64
2022/07/10 12:10:49;;;;;;;7.75;1.45;;;;;;;;;;4968352;28;20059;-64
2022/07/10 12:13:16;;;;;;;2.28;1.00;;;;;;;;;;4963162;28;20051;-64
2022/07/10 12:15:44;;;;;;;4.35;1.20;;;;;;;;;;4968997;28;20050;-64
2022/07/10 12:18:16;;;;;;;3.70;0.98;;;;;;;;;;4962576;28;20043;-64
2022/07/10 12:20:45;;;;;;;3.03;1.08;;;;;;;;;;4969018;28;20054;-64
2022/07/10 12:23:15;;;;;;;1.75;0.80;;;;;;;;;;4963435;28;20122;-64
2022/07/10 12:25:42;;;;;;;3.30;1.30;;;;;;;;;;4962681;28;20061;-64
2022/07/10 12:28:11;;;;;;;2.60;1.00;;;;;;;;;;4961966;28;20057;-64
2022/07/10 12:30:41;;;;;;;4.80;1.00;;;;;;;;;;4967805;28;20122;-64
2022/07/10 12:33:16;;;;;;;7.35;1.38;;;;;;;;;;4962524;28;20059;-64
2022/07/10 12:35:49;;;;;;;2.55;0.82;;;;;;;;;;4966841;28;20050;-64
2022/07/10 12:38:17;;;;;;;3.42;1.30;;;;;;;;;;4962973;28;20047;-64
2022/07/10 12:40:44;;;;;;;5.38;1.30;;;;;;;;;;4968984;28;20058;-64
2022/07/10 12:43:12;;;;;;;4.07;1.80;;;;;;;;;;4963543;28;20074;-64
2022/07/10 12:45:39;;;;;;;3.65;1.00;;;;;;;;;;4958934;28;20058;-64
2022/07/10 12:48:06;;;;;;;3.42;1.00;;;;;;;;;;4967884;28;20047;-64
2022/07/10 12:50:33;;;;;;;6.95;1.13;;;;;;;;;;4960540;28;20113;-64
2022/07/10 12:53:11;;;;;;;3.78;0.95;;;;;;;;;;4967512;28;20050;-64
2022/07/10 12:55:38;;;;;;;1.35;0.70;;;;;;;;;;4961653;28;20070;-64
2022/07/10 12:58:08;;;;;;;2.38;1.02;;;;;;;;;;4967321;28;20058;-64
2022/07/10 13:00:44;;;;;;;2.15;0.90;;;;;;;;;;4962386;28;20058;-64
2022/07/10 13:03:14;;;;;;;2.28;0.90;;;;;;;;;;4956399;28;20078;-64
2022/07/10 13:05:42;;;;;;;2.58;1.20;;;;;;;;;;4962184;28;20054;-64
2022/07/10 13:08:11;;;;;;;2.90;1.17;;;;;;;;;;4971461;28;20053;-64
2022/07/10 13:10:37;;;;;;;2.45;0.90;;;;;;;;;;4966214;28;20082;-64
2022/07/10 13:13:04;;;;;;;3.15;1.10;;;;;;;;;;4971992;28;20065;-64
2022/07/10 13:15:31;;;;;;;5.50;0.98;;;;;;;;;;4964078;28;20054;-64
2022/07/10 13:17:59;;;;;;;5.68;1.10;;;;;;;;;;4971761;28;20133;-65
2022/07/10 13:20:26;;;;;;;3.40;1.27;;;;;;;;;;4964996;28;20086;-64
2022/07/10 13:22:52;;;;;;;3.85;1.00;;;;;;;;;;4969587;28;20062;-64
2022/07/10 13:25:19;;;;;;;2.15;1.10;;;;;;;;;;4965477;28;20057;-64
2022/07/10 13:27:46;;;;;;;3.60;1.20;;;;;;;;;;4970505;28;20141;-64
2022/07/10 13:30:13;;;;;;;3.83;1.20;;;;;;;;;;4965762;28;20055;-64
2022/07/10 13:32:39;;;;;;;2.53;1.02;;;;;;;;;;4971365;28;20047;-64
2022/07/10 13:35:08;;;;;;;3.63;1.42;;;;;;;;;;4971141;28;20050;-64
2022/07/10 13:37:36;;;;;;;3.50;1.00;;;;;;;;;;4969429;28;20047;-64
2022/07/10 13:40:03;;;;;;;4.20;1.30;;;;;;;;;;4967232;28;20050;-64
2022/07/10 13:42:30;;;;;;;3.70;1.08;;;;;;;;;;4963408;28;20109;-64
2022/07/10 13:44:56;;;;;;;5.80;1.00;;;;;;;;;;4970239;28;20071;-64
2022/07/10 13:47:23;;;;;;;3.13;1.00;;;;;;;;;;4963546;28;20046;-64
2022/07/10 13:49:50;;;;;;;2.72;0.90;;;;;;;;;;4967971;28;20069;-64
2022/07/10 13:52:19;;;;;;;5.15;1.10;;;;;;;;;;4964443;28;20065;-64
2022/07/10 13:54:46;;;;;;;5.78;0.82;;;;;;;;;;4967796;28;20055;-64
2022/07/10 13:57:12;;;;;;;2.67;0.98;;;;;;;;;;4966387;28;20046;-64
2022/07/10 13:59:39;;;;;;;1.00;0.70;;;;;;;;;;4969678;28;20067;-64
2022/07/10 14:02:05;;;;;;;4.38;1.00;;;;;;;;;;4953476;28;20135;-64
2022/07/10 14:04:32;;;;;;;5.07;0.95;;;;;;;;;;4969248;28;20137;-65
2022/07/10 14:06:59;;;;;;;2.92;0.93;;;;;;;;;;4960076;28;20069;-64
2022/07/10 14:09:28;;;;;;;1.42;0.82;;;;;;;;;;4968789;28;20054;-63
2022/07/10 14:11:55;;;;;;;2.00;0.80;;;;;;;;;;4964869;28;20057;-64
2022/07/10 14:14:22;;;;;;;1.30;0.88;;;;;;;;;;4969788;28;20055;-64
2022/07/10 14:16:49;;;;;;;1.42;0.82;;;;;;;;;;4964609;28;20083;-64
2022/07/10 14:19:16;;;;;;;5.07;1.23;;;;;;;;;;4968260;28;20058;-64
2022/07/10 14:21:44;;;;;;;2.90;1.10;;;;;;;;;;4969156;28;20055;-66
2022/07/10 14:24:10;;;;;;;13.52;2.22;;;;;;;;;;4964736;28;20071;-67
2022/07/10 14:26:38;;;;;;;95.30;7.90;;;;;;;;;;4968917;28;20055;-66
2022/07/10 14:29:05;;;;;;;109.88;10.25;;;;;;;;;;4964420;28;20046;-66
2022/07/10 14:31:32;;;;;;;6.65;1.83;;;;;;;;;;4968256;28;20090;-66
2022/07/10 14:33:58;;;;;;;28.67;4.15;;;;;;;;;;4964788;28;20061;-66
2022/07/10 14:36:26;;;;;;;13.70;2.05;;;;;;;;;;4968837;28;20051;-66
2022/07/10 14:38:53;;;;;;;4.43;1.85;;;;;;;;;;4963641;28;20050;-66
2022/07/10 14:41:20;;;;;;;28.88;4.55;;;;;;;;;;4969262;28;20138;-66
2022/07/10 14:43:49;;;;;;;4.80;1.88;;;;;;;;;;4959425;28;20114;-66
2022/07/10 14:46:16;;;;;;;2.80;1.08;;;;;;;;;;4968771;28;20102;-66
2022/07/10 14:48:42;;;;;;;12.00;3.08;;;;;;;;;;4963407;28;20059;-66
2022/07/10 14:51:10;;;;;;;4.40;1.40;;;;;;;;;;4968661;28;20059;-66
2022/07/10 14:53:41;;;;;;;5.63;1.73;;;;;;;;;;4957534;28;20097;-66
2022/07/10 14:56:07;;;;;;;7.47;1.83;;;;;;;;;;4966856;28;20051;-66
2022/07/10 14:58:34;;;;;;;11.40;2.78;;;;;;;;;;4961704;28;20074;-67
2022/07/10 15:01:03;;;;;;;6.10;1.90;;;;;;;;;;4969385;28;20055;-66
2022/07/10 15:03:38;;;;;;;30.00;4.65;;;;;;;;;;4970278;28;20110;-66
2022/07/10 15:06:05;;;;;;;13.40;3.83;;;;;;;;;;4970505;28;20035;-66